메인 페이지
METAR-TAF:

METAR-TAF

공항 :

그란카나리아 섬, 스페인

위도: 27-56N, 경도: 015-23W, 고도: 23m

현재 날씨관측

예보는 34분 전, 11:30시(UTC)에 발표되었습니다.
13kt
온도 19°C
습도 60%
기압 1027 hPa
시정 10km 이상
고도 4000ft 상공 구름 많음

METAR: GCLP 201130Z 36013KT 9999 BKN040 19/11 Q1027 NOSIG

시각: 12:04 (12:04 UTC)

예보

예보는 4 시간 4분 전, 08:00시(UTC)에 발표되었습니다.
예보 대상 시간: 20일 09시부터 21일 09시까지 (UTC)
18kt
시정 10km 이상
고도 3000ft 상공 구름 보통
확률 30% :
일시적
20일 09시부터 20일 10시까지 (UTC)
8kt
확률 40% :
일시적
20일 21시부터 20일 24시까지 (UTC)

TAF: GCLP 200800Z 2009/2109 36018KT 9999 SCT030 TX21/2014Z TN15/2106Z PROB30 TEMPO 2009/2010 35008KT PROB40 TEMPO 2021/2024 RA

4,000개 이상의 공항 관측 자료 및 예보 (METAR 및 TAF 보고).

지도상에서 검색 가능한 기상관측소가 노란 점과 빨간 점으로 표시되어 있습니다.

기상관측소 명을 보려면 표시 위로 마우스를 이동하세요.

날씨 관측과 예보를 보려면 클릭하세요.

지도 변경 : 확대하려면 엑스 표시가 있는 녹색 버튼, 축소하려면 빼기 표시가 있는 녹색 버튼, 다음 페이지의 지도를 보려면 녹색 화살표를 클릭하세요.


METAR-TAF: